Time;durP1;ratioP1;P1;durP2;ratioP2;P2;SDS_P1;SDS_P2;PMS_P1;PMS_P2;Temp;Humidity;BMP_temperature;BMP_pressure;BME280_temperature;BME280_humidity;BME280_pressure;Samples;Min_cycle;Max_cycle;Signal;HPM_P1;HPM_P2
2023/10/02 00:01:33;;;;;;;6.47;3.42;;;20.10;69.80;;;;;;4840760;29;20212;-64
2023/10/02 00:45:59;;;;;;;6.45;3.85;;;20.10;69.80;;;;;;4933070;29;20283;-65
2023/10/02 00:51:51;;;;;;;8.48;4.13;;;20.00;69.70;;;;;;4875920;29;20203;-65
2023/10/02 00:54:53;;;;;;;6.40;3.30;;;20.00;69.70;;;;;;4926013;29;20363;-65
2023/10/02 00:57:40;;;;;;;6.78;3.58;;;20.00;69.70;;;;;;4876036;29;20251;-65
2023/10/02 01:00:45;;;;;;;5.90;3.63;;;20.10;69.80;;;;;;4876679;29;20230;-65
2023/10/02 01:03:22;;;;;;;7.20;3.95;;;20.00;69.70;;;;;;4809135;29;20222;-65
2023/10/02 01:13:24;;;;;;;7.35;3.80;;;20.00;69.60;;;;;;4859232;29;20597;-65
2023/10/02 01:15:54;;;;;;;6.22;3.78;;;20.00;69.60;;;;;;4907685;29;20606;-65
2023/10/02 02:10:22;;;;;;;5.65;3.35;;;20.00;69.50;;;;;;4912355;29;20247;-65
2023/10/02 02:23:33;;;;;;;5.05;3.10;;;20.00;69.50;;;;;;4906066;29;20185;-65
2023/10/02 02:26:31;;;;;;;6.65;3.55;;;20.00;69.50;;;;;;4913270;29;20209;-65
2023/10/02 02:46:17;;;;;;;6.47;3.47;;;20.00;69.40;;;;;;4975456;28;20240;-65
2023/10/02 03:34:29;;;;;;;6.22;3.08;;;20.00;69.50;;;;;;4859814;29;20264;-65
2023/10/02 03:50:14;;;;;;;5.25;3.30;;;19.90;69.40;;;;;;4915149;29;20233;-65
2023/10/02 03:55:50;;;;;;;6.60;3.35;;;20.00;69.40;;;;;;4860813;29;20238;-65
2023/10/02 03:58:17;;;;;;;5.32;3.22;;;20.00;69.40;;;;;;4896502;29;20254;-65
2023/10/02 04:00:50;;;;;;;7.07;3.53;;;20.00;69.40;;;;;;4896525;29;20226;-65
2023/10/02 04:03:18;;;;;;;6.25;3.45;;;20.00;69.40;;;;;;4896363;29;20639;-65
2023/10/02 04:05:46;;;;;;;7.22;3.40;;;20.00;69.40;;;;;;4896329;29;20226;-64
2023/10/02 04:08:17;;;;;;;5.90;3.55;;;20.00;69.40;;;;;;4896342;29;20205;-64
2023/10/02 04:11:03;;;;;;;6.28;3.53;;;20.00;69.40;;;;;;4896464;29;20226;-65
2023/10/02 04:13:33;;;;;;;6.40;3.47;;;20.00;69.40;;;;;;4902300;29;20291;-65
2023/10/02 04:18:49;;;;;;;7.70;3.50;;;20.00;69.40;;;;;;5013570;28;20189;-65
2023/10/02 04:21:22;;;;;;;5.85;3.90;;;20.00;69.40;;;;;;5013790;28;20221;-65
2023/10/02 04:23:52;;;;;;;5.60;3.40;;;20.00;69.40;;;;;;5013738;28;20289;-65
2023/10/02 04:26:23;;;;;;;6.88;3.53;;;20.00;69.40;;;;;;5013270;28;20193;-65
2023/10/02 04:28:55;;;;;;;5.68;3.60;;;20.00;69.40;;;;;;5013297;28;20226;-64
2023/10/02 04:31:27;;;;;;;8.07;4.00;;;20.00;69.40;;;;;;5013324;28;20629;-65
2023/10/02 04:34:15;;;;;;;5.70;3.25;;;20.00;69.40;;;;;;5013297;28;20228;-65
2023/10/02 04:36:43;;;;;;;8.25;4.05;;;20.00;69.40;;;;;;5013132;28;20588;-65
2023/10/02 04:42:09;;;;;;;6.18;3.40;;;20.00;69.40;;;;;;5013200;28;20205;-65
2023/10/02 04:44:56;;;;;;;7.65;3.92;;;20.00;69.40;;;;;;5013300;28;20233;-65
2023/10/02 04:47:26;;;;;;;6.78;3.42;;;20.00;69.40;;;;;;5012875;28;20208;-65
2023/10/02 04:52:57;;;;;;;5.72;3.53;;;20.00;69.40;;;;;;5013378;28;20328;-65
2023/10/02 04:55:25;;;;;;;7.28;3.60;;;20.00;69.40;;;;;;5013348;28;20229;-65
2023/10/02 04:57:54;;;;;;;10.05;3.70;;;20.00;69.40;;;;;;5013018;28;20189;-65
2023/10/02 05:00:32;;;;;;;5.97;3.53;;;20.00;69.50;;;;;;5013288;28;20248;-65
2023/10/02 05:03:17;;;;;;;7.03;3.65;;;20.00;69.40;;;;;;5012837;28;20197;-65
2023/10/02 05:06:42;;;;;;;8.65;3.78;;;20.00;69.60;;;;;;5013261;28;20232;-65
2023/10/02 05:11:50;;;;;;;5.55;3.67;;;20.00;69.50;;;;;;4957686;28;20316;-65
2023/10/02 05:14:26;;;;;;;6.85;3.78;;;20.00;69.60;;;;;;4990875;28;20240;-65
2023/10/02 05:16:56;;;;;;;5.63;3.00;;;20.00;69.60;;;;;;4990916;28;20233;-65
2023/10/02 05:22:07;;;;;;;6.32;3.28;;;20.00;70.40;;;;;;4990830;28;20204;-65
2023/10/02 05:24:35;;;;;;;6.82;3.50;;;20.00;69.60;;;;;;4990617;28;20284;-65
2023/10/02 05:27:06;;;;;;;7.95;3.50;;;20.00;69.60;;;;;;4990658;28;20190;-65
2023/10/02 05:29:41;;;;;;;6.10;3.65;;;20.00;69.60;;;;;;4990606;28;20222;-65
2023/10/02 05:32:19;;;;;;;6.38;3.50;;;20.00;69.60;;;;;;4990513;28;20706;-65
2023/10/02 05:35:04;;;;;;;6.53;3.63;;;20.00;69.50;;;;;;4990500;28;20228;-65
2023/10/02 05:37:32;;;;;;;6.93;3.65;;;20.00;69.60;;;;;;4990682;28;20198;-65
2023/10/02 05:45:50;;;;;;;5.82;3.50;;;20.00;69.80;;;;;;4977500;28;20229;-65
2023/10/02 06:19:42;;;;;;;8.40;4.03;;;20.00;69.90;;;;;;4839334;29;20681;-65
2023/10/02 06:30:07;;;;;;;;;;;;;;;;;;;;;
2023/10/02 06:33:02;;;;;;;8.15;3.97;;;19.90;69.80;;;;;;4757930;30;20214;-65
2023/10/02 07:51:55;;;;;;;6.90;3.83;;;19.90;70.20;;;;;;4934745;29;20727;-65
2023/10/02 08:43:05;;;;;;;9.95;4.05;;;20.00;70.40;;;;;;4859944;29;20224;-65
2023/10/02 08:46:19;;;;;;;5.95;3.65;;;20.10;70.50;;;;;;4909781;29;20770;-63
2023/10/02 08:48:54;;;;;;;9.02;3.70;;;20.00;70.40;;;;;;4914432;29;20646;-60
2023/10/02 08:51:30;;;;;;;6.20;3.63;;;20.10;70.60;;;;;;4914594;29;20229;-64
2023/10/02 08:54:11;;;;;;;7.22;4.00;;;20.10;70.60;;;;;;4913664;29;20197;-65
2023/10/02 08:57:12;;;;;;;7.50;3.50;;;20.10;70.90;;;;;;4914390;29;20323;-64
2023/10/02 09:00:13;;;;;;;7.00;3.28;;;20.20;71.30;;;;;;4912954;29;20231;-65
2023/10/02 09:02:41;;;;;;;6.63;3.40;;;20.20;71.80;;;;;;4914362;29;20295;-64
2023/10/02 09:05:11;;;;;;;8.00;3.63;;;20.20;72.50;;;;;;4914195;29;20253;-65
2023/10/02 09:08:00;;;;;;;8.82;3.38;;;20.20;72.80;;;;;;4914114;29;20217;-64
2023/10/02 09:10:29;;;;;;;7.05;3.42;;;20.20;72.80;;;;;;4949655;28;20592;-65
2023/10/02 09:13:14;;;;;;;10.35;3.60;;;20.20;73.10;;;;;;4952128;29;20279;-65
2023/10/02 09:15:45;;;;;;;5.72;3.63;;;20.20;73.10;;;;;;4952179;28;20246;-64
2023/10/02 09:18:33;;;;;;;7.40;3.42;;;20.20;72.90;;;;;;4951810;28;20231;-65
2023/10/02 09:21:13;;;;;;;7.47;3.45;;;20.20;72.70;;;;;;4952196;28;20230;-64
2023/10/02 09:23:49;;;;;;;8.30;3.88;;;20.20;72.60;;;;;;4951903;29;20196;-62
2023/10/02 09:26:18;;;;;;;6.85;3.25;;;20.20;72.60;;;;;;4952163;28;20783;-65
2023/10/02 09:28:58;;;;;;;5.45;3.35;;;20.20;72.50;;;;;;4951916;29;20220;-63
2023/10/02 09:31:28;;;;;;;8.23;3.80;;;20.20;72.40;;;;;;4952049;28;20223;-65
2023/10/02 09:33:56;;;;;;;7.47;4.03;;;20.10;72.20;;;;;;4951908;29;20203;-65
2023/10/02 09:36:36;;;;;;;5.35;3.45;;;20.20;72.20;;;;;;4951965;28;20322;-65
2023/10/02 09:39:31;;;;;;;8.70;3.92;;;20.10;72.10;;;;;;4951777;29;20249;-65
2023/10/02 09:42:05;;;;;;;6.90;3.75;;;20.10;71.90;;;;;;4951254;29;20199;-64
2023/10/02 09:44:40;;;;;;;5.70;3.63;;;20.10;71.90;;;;;;4951737;28;20196;-64
2023/10/02 09:47:20;;;;;;;5.15;3.65;;;20.10;72.00;;;;;;4951924;29;20230;-64
2023/10/02 09:50:10;;;;;;;6.20;3.42;;;20.20;72.00;;;;;;4951789;28;20223;-65
2023/10/02 09:52:58;;;;;;;5.82;3.60;;;20.20;71.80;;;;;;4951734;29;20203;-64
2023/10/02 09:55:40;;;;;;;6.15;3.55;;;20.10;71.80;;;;;;4951936;28;20230;-64
2023/10/02 09:58:27;;;;;;;7.93;4.03;;;20.10;71.90;;;;;;4951561;29;20207;-65
2023/10/02 10:01:35;;;;;;;5.35;3.80;;;20.20;71.90;;;;;;4951719;28;20722;-65
2023/10/02 10:07:37;;;;;;;6.88;3.78;;;20.10;71.70;;;;;;4955601;29;20192;-64
2023/10/02 10:10:27;;;;;;;6.57;3.50;;;20.10;71.70;;;;;;4955425;28;20223;-65
2023/10/02 10:13:59;;;;;;;7.65;3.70;;;20.10;71.70;;;;;;4955404;29;20199;-63
2023/10/02 10:19:38;;;;;;;6.97;4.13;;;20.10;71.70;;;;;;4895067;29;20312;-65
2023/10/02 10:22:27;;;;;;;5.72;3.33;;;20.10;71.70;;;;;;4898236;29;20550;-64
2023/10/02 10:31:29;;;;;;;5.75;3.80;;;20.10;71.70;;;;;;4898236;29;20285;-64
2023/10/02 10:33:56;;;;;;;7.03;4.30;;;20.10;71.70;;;;;;4898191;29;20267;-65
2023/10/02 10:36:46;;;;;;;6.38;4.15;;;20.10;71.70;;;;;;4898038;29;20230;-64
2023/10/02 10:40:18;;;;;;;6.20;3.65;;;20.10;71.70;;;;;;4897921;29;20210;-63
2023/10/02 10:43:09;;;;;;;6.38;4.03;;;20.20;71.80;;;;;;4898153;29;20292;-64
2023/10/02 10:45:38;;;;;;;8.50;3.85;;;20.10;71.70;;;;;;4895086;29;20608;-65
2023/10/02 10:48:18;;;;;;;5.18;3.22;;;20.10;71.70;;;;;;4897726;29;20202;-65
2023/10/02 10:50:57;;;;;;;6.35;3.67;;;20.20;71.80;;;;;;4897760;29;20226;-62
2023/10/02 10:53:29;;;;;;;6.95;3.25;;;20.10;71.70;;;;;;4939037;29;20207;-65
2023/10/02 10:56:05;;;;;;;6.43;3.70;;;20.10;71.70;;;;;;4954642;28;20263;-64
2023/10/02 10:58:34;;;;;;;6.03;4.00;;;20.20;71.80;;;;;;4954551;29;20605;-64
2023/10/02 11:01:04;;;;;;;6.25;3.42;;;20.20;71.80;;;;;;4954597;28;20231;-65
2023/10/02 11:03:31;;;;;;;5.72;3.75;;;20.20;71.80;;;;;;4954507;29;20231;-64
2023/10/02 11:06:03;;;;;;;6.68;3.70;;;20.20;71.80;;;;;;4954584;28;20220;-65
2023/10/02 11:08:37;;;;;;;5.70;3.60;;;20.20;71.80;;;;;;4954449;29;20202;-63
2023/10/02 11:11:26;;;;;;;9.23;3.72;;;20.20;71.80;;;;;;4954446;28;20616;-65
2023/10/02 11:13:55;;;;;;;7.50;4.13;;;20.20;71.80;;;;;;4954358;29;20206;-64
2023/10/02 11:16:22;;;;;;;5.90;3.80;;;20.20;71.80;;;;;;4953353;28;20246;-65
2023/10/02 11:19:14;;;;;;;8.18;4.00;;;20.20;71.80;;;;;;4954176;28;20249;-65
2023/10/02 11:22:01;;;;;;;7.10;4.22;;;20.20;71.80;;;;;;4954421;28;20226;-65
2023/10/02 11:24:37;;;;;;;7.18;3.70;;;20.20;71.80;;;;;;4954004;28;20205;-65
2023/10/02 11:27:23;;;;;;;6.65;3.85;;;20.20;71.80;;;;;;4954038;29;20299;-65
2023/10/02 11:30:02;;;;;;;6.63;4.00;;;20.20;71.80;;;;;;4953967;28;20836;-64
2023/10/02 11:35:56;;;;;;;9.00;3.78;;;20.20;71.80;;;;;;4918492;28;20224;-64
2023/10/02 11:38:24;;;;;;;6.63;3.97;;;20.20;71.80;;;;;;4953733;29;20273;-64
2023/10/02 11:40:53;;;;;;;6.93;3.90;;;20.20;71.80;;;;;;4953950;28;20311;-64
2023/10/02 11:43:21;;;;;;;5.18;3.42;;;20.20;71.80;;;;;;4953816;29;20192;-64
2023/10/02 11:45:49;;;;;;;5.80;3.83;;;20.20;71.80;;;;;;4953808;28;20228;-65
2023/10/02 11:48:16;;;;;;;5.97;3.95;;;20.20;71.80;;;;;;4953605;29;20210;-65
2023/10/02 11:50:44;;;;;;;6.78;3.78;;;20.20;71.80;;;;;;4953708;28;20310;-64
2023/10/02 11:53:12;;;;;;;6.03;3.53;;;20.20;71.80;;;;;;4953541;29;20195;-64
2023/10/02 11:55:40;;;;;;;5.35;3.72;;;20.20;71.90;;;;;;4953656;28;20230;-65
2023/10/02 11:58:09;;;;;;;7.45;3.95;;;20.20;71.90;;;;;;4953610;29;20231;-65
2023/10/02 12:00:37;;;;;;;6.97;3.90;;;20.20;71.90;;;;;;4953561;28;20801;-65
2023/10/02 12:03:06;;;;;;;5.53;3.55;;;20.30;72.00;;;;;;4953402;29;20709;-65
2023/10/02 12:10:58;;;;;;;5.95;3.22;;;20.30;72.10;;;;;;4952884;28;20223;-64
2023/10/02 12:13:27;;;;;;;5.22;3.42;;;20.20;72.00;;;;;;4953254;29;20202;-64
2023/10/02 12:16:33;;;;;;;7.15;3.97;;;20.30;72.20;;;;;;4953329;28;20306;-64
2023/10/02 12:19:00;;;;;;;7.72;3.80;;;20.30;72.30;;;;;;4953151;28;20277;-65
2023/10/02 12:21:39;;;;;;;5.45;3.20;;;20.30;72.20;;;;;;4953320;28;20219;-65
2023/10/02 12:24:07;;;;;;;7.03;3.53;;;20.30;72.40;;;;;;4922056;29;20204;-65
2023/10/02 12:26:35;;;;;;;8.32;3.60;;;20.30;72.30;;;;;;4953112;28;20227;-64
2023/10/02 12:29:10;;;;;;;7.78;3.75;;;20.30;72.40;;;;;;4952951;29;20290;-64
2023/10/02 12:31:40;;;;;;;5.05;3.25;;;20.30;72.50;;;;;;4953051;28;20219;-65
2023/10/02 12:34:07;;;;;;;7.25;3.80;;;20.30;72.50;;;;;;4952819;29;20299;-64
2023/10/02 12:36:35;;;;;;;8.05;4.35;;;20.30;72.60;;;;;;4952956;28;20243;-65
2023/10/02 12:39:09;;;;;;;5.93;3.70;;;20.30;72.60;;;;;;4952751;29;20206;-64
2023/10/02 12:41:49;;;;;;;5.90;3.72;;;20.30;72.60;;;;;;4952921;28;20229;-64
2023/10/02 12:51:11;;;;;;;5.78;3.53;;;20.30;72.80;;;;;;4848389;29;20227;-66
2023/10/02 12:53:45;;;;;;;4.85;3.50;;;20.30;72.80;;;;;;4858378;29;20214;-64
2023/10/02 12:56:18;;;;;;;7.97;3.92;;;20.30;72.90;;;;;;4908685;29;20228;-64
2023/10/02 12:58:48;;;;;;;6.65;3.92;;;20.30;72.90;;;;;;4914433;29;20623;-64
2023/10/02 13:07:21;;;;;;;6.85;3.63;;;20.30;73.00;;;;;;4847328;29;20338;-64
2023/10/02 13:09:48;;;;;;;7.13;4.05;;;20.40;73.10;;;;;;4914349;29;20212;-65
2023/10/02 13:12:16;;;;;;;5.40;3.63;;;20.30;73.10;;;;;;4979118;28;20287;-64
2023/10/02 13:14:44;;;;;;;5.18;3.33;;;20.40;73.10;;;;;;4990840;28;20186;-64
2023/10/02 13:17:12;;;;;;;8.82;4.10;;;20.40;73.90;;;;;;4990727;28;20237;-64
2023/10/02 13:19:39;;;;;;;6.10;3.30;;;20.40;73.10;;;;;;4971443;28;20346;-64
2023/10/02 13:22:07;;;;;;;6.70;3.65;;;20.40;73.20;;;;;;4971556;28;20588;-65
2023/10/02 13:24:36;;;;;;;5.60;3.45;;;20.40;73.10;;;;;;4971295;28;20198;-65
2023/10/02 13:27:04;;;;;;;5.75;3.88;;;20.40;73.20;;;;;;4971491;28;20223;-65
2023/10/02 13:29:34;;;;;;;5.47;3.47;;;20.40;73.20;;;;;;4971306;28;20206;-65
2023/10/02 13:32:04;;;;;;;5.50;3.50;;;20.40;73.20;;;;;;4971457;28;20222;-65
2023/10/02 13:34:32;;;;;;;6.82;3.63;;;20.40;73.20;;;;;;4971250;28;20201;-65
2023/10/02 13:37:07;;;;;;;6.68;3.78;;;20.40;73.30;;;;;;4971270;28;20238;-64
2023/10/02 13:39:39;;;;;;;6.35;3.83;;;20.40;73.20;;;;;;4970764;28;20273;-65
2023/10/02 13:42:06;;;;;;;6.57;3.60;;;20.40;73.40;;;;;;4971369;28;20226;-64
2023/10/02 13:44:34;;;;;;;6.00;3.75;;;20.40;74.20;;;;;;4971185;28;20230;-64
2023/10/02 13:49:43;;;;;;;7.22;3.90;;;20.40;74.20;;;;;;4969509;28;20214;-65
2023/10/02 13:52:11;;;;;;;6.70;4.00;;;20.40;73.50;;;;;;4971030;28;20191;-64
2023/10/02 13:54:40;;;;;;;5.90;3.33;;;20.40;73.40;;;;;;4970998;28;20198;-65
2023/10/02 13:57:08;;;;;;;5.70;3.40;;;20.40;73.50;;;;;;4971098;28;20330;-65
2023/10/02 14:00:10;;;;;;;5.88;3.47;;;20.40;73.60;;;;;;4970985;28;20198;-64
2023/10/02 14:02:49;;;;;;;5.05;3.05;;;20.40;73.70;;;;;;4951896;29;20298;-65
2023/10/02 14:08:30;;;;;;;5.80;3.60;;;20.40;73.80;;;;;;4951668;29;20334;-65
2023/10/02 14:10:59;;;;;;;5.63;3.70;;;20.50;73.90;;;;;;4951616;28;20304;-65
2023/10/02 14:19:29;;;;;;;8.38;3.88;;;20.50;73.90;;;;;;4936301;29;20281;-65
2023/10/02 14:22:01;;;;;;;6.53;3.55;;;20.40;73.80;;;;;;4951681;28;20267;-65
2023/10/02 14:24:33;;;;;;;6.60;3.67;;;20.40;73.80;;;;;;4951565;29;20200;-65
2023/10/02 14:27:02;;;;;;;4.95;3.40;;;20.50;73.90;;;;;;4951586;28;20321;-64
2023/10/02 14:29:30;;;;;;;7.28;3.65;;;20.50;73.90;;;;;;4951454;29;20211;-62
2023/10/02 14:31:58;;;;;;;7.60;4.00;;;20.50;73.90;;;;;;4951592;28;20302;-65
2023/10/02 14:34:26;;;;;;;6.20;3.50;;;20.50;74.00;;;;;;4951339;29;20198;-64
2023/10/02 14:36:56;;;;;;;5.97;3.88;;;20.50;74.00;;;;;;4957696;28;20226;-64
2023/10/02 14:39:30;;;;;;;5.35;3.50;;;20.50;74.00;;;;;;4990011;28;20225;-65
2023/10/02 14:49:16;;;;;;;6.50;3.80;;;20.50;74.20;;;;;;4989981;28;20192;-65
2023/10/02 14:51:45;;;;;;;6.47;3.50;;;20.50;74.20;;;;;;4991923;28;20222;-65
2023/10/02 14:54:15;;;;;;;4.75;3.53;;;20.50;74.20;;;;;;4993499;28;20186;-65
2023/10/02 14:56:53;;;;;;;;;;;;;;;;;;;;;
2023/10/02 14:59:20;;;;;;;6.22;3.40;;;20.50;74.40;;;;;;4993384;28;20708;-64
2023/10/02 15:01:49;;;;;;;5.90;3.72;;;20.50;74.40;;;;;;4993532;28;20353;-65
2023/10/02 15:04:17;;;;;;;6.57;4.03;;;20.50;74.30;;;;;;4993273;28;20259;-65
2023/10/02 15:06:46;;;;;;;5.40;3.45;;;20.50;74.20;;;;;;4993370;28;20214;-65
2023/10/02 15:09:14;;;;;;;5.18;3.10;;;20.60;74.40;;;;;;4993180;28;20202;-64
2023/10/02 15:11:42;;;;;;;6.13;3.78;;;20.60;74.40;;;;;;4993283;28;20218;-65
2023/10/02 15:14:41;;;;;;;5.40;3.42;;;20.60;74.50;;;;;;4993146;28;20186;-64
2023/10/02 15:17:29;;;;;;;;;;;;;;;;;;;;;
2023/10/02 15:23:00;;;;;;;8.48;3.53;;;20.60;74.50;;;;;;4985715;28;20213;-65
2023/10/02 15:25:30;;;;;;;6.40;3.72;;;20.60;74.60;;;;;;4992859;28;20217;-65
2023/10/02 15:28:00;;;;;;;7.18;3.60;;;20.60;74.60;;;;;;4992849;28;20226;-65
2023/10/02 15:30:29;;;;;;;6.70;3.45;;;20.60;74.60;;;;;;4992764;28;20292;-65
2023/10/02 15:32:58;;;;;;;6.05;3.58;;;20.60;74.60;;;;;;4992673;28;20194;-65
2023/10/02 15:35:26;;;;;;;5.07;3.40;;;20.60;74.60;;;;;;4992704;28;20330;-65
2023/10/02 15:37:55;;;;;;;6.13;3.70;;;20.60;74.60;;;;;;4992408;28;20230;-65
2023/10/02 15:40:36;;;;;;;9.52;3.70;;;20.70;74.70;;;;;;4992610;28;20304;-65
2023/10/02 15:43:14;;;;;;;;;;;;;;;;;;;;;
2023/10/02 15:45:45;;;;;;;6.00;3.40;;;20.60;74.60;;;;;;4944218;28;20591;-64
2023/10/02 15:48:12;;;;;;;5.47;3.13;;;20.60;74.60;;;;;;4992371;28;20660;-65
2023/10/02 15:50:43;;;;;;;6.60;4.30;;;20.60;74.70;;;;;;4992299;28;20228;-64
2023/10/02 15:53:20;;;;;;;7.28;3.95;;;20.60;74.70;;;;;;4992513;28;20358;-64
2023/10/02 15:55:51;;;;;;;7.40;3.50;;;20.60;74.70;;;;;;4944452;28;20214;-64
2023/10/02 15:58:18;;;;;;;5.43;3.42;;;20.70;74.90;;;;;;4992093;28;20226;-63
2023/10/02 16:00:49;;;;;;;4.65;3.30;;;20.60;74.80;;;;;;4992253;28;20304;-65
2023/10/02 16:03:16;;;;;;;5.80;3.55;;;20.60;74.80;;;;;;4991877;28;20245;-64
2023/10/02 16:05:46;;;;;;;6.57;3.47;;;20.60;74.80;;;;;;4991983;28;20230;-64
2023/10/02 16:08:14;;;;;;;5.95;3.53;;;20.60;74.80;;;;;;4992043;28;20196;-65
2023/10/02 16:10:46;;;;;;;5.97;3.50;;;20.60;74.80;;;;;;4992076;28;20309;-63
2023/10/02 16:13:15;;;;;;;6.90;4.07;;;20.70;75.00;;;;;;4991942;28;20656;-64
2023/10/02 16:15:55;;;;;;;7.10;3.97;;;20.70;75.00;;;;;;4991974;28;20226;-64
2023/10/02 16:18:23;;;;;;;5.28;3.88;;;20.70;75.10;;;;;;4991562;28;20253;-65
2023/10/02 16:20:53;;;;;;;5.68;3.63;;;20.70;75.10;;;;;;4991983;28;20296;-65
2023/10/02 16:23:21;;;;;;;6.00;3.88;;;20.70;75.10;;;;;;4991902;28;20190;-63
2023/10/02 16:25:48;;;;;;;6.20;3.63;;;20.70;75.20;;;;;;4991834;28;20265;-63
2023/10/02 16:28:22;;;;;;;5.70;3.75;;;20.70;75.10;;;;;;4991645;28;20198;-64
2023/10/02 16:31:00;;;;;;;;;;;;;;;;;;;;;
2023/10/02 16:33:47;;;;;;;6.28;3.80;;;20.70;75.20;;;;;;4991062;28;20305;-65
2023/10/02 16:40:18;;;;;;;7.45;4.00;;;20.70;75.40;;;;;;4991496;28;20288;-65
2023/10/02 16:42:56;;;;;;;;;;;;;;;;;;;;;
2023/10/02 16:45:27;;;;;;;5.97;3.75;;;20.70;75.30;;;;;;4981011;28;20590;-65
2023/10/02 16:47:58;;;;;;;5.95;3.90;;;20.70;75.40;;;;;;4991329;28;20198;-63
2023/10/02 16:50:27;;;;;;;7.20;3.55;;;20.70;75.50;;;;;;4991301;28;20645;-64
2023/10/02 16:55:37;;;;;;;6.60;3.67;;;20.70;75.50;;;;;;4988845;28;20232;-64
2023/10/02 16:58:04;;;;;;;5.93;3.97;;;20.70;75.60;;;;;;4991056;28;20218;-64
2023/10/02 17:00:35;;;;;;;6.85;4.03;;;20.70;75.60;;;;;;4991158;28;20304;-65
2023/10/02 17:03:04;;;;;;;6.43;3.70;;;20.70;75.60;;;;;;4991153;28;20191;-64
2023/10/02 17:05:31;;;;;;;7.15;4.22;;;20.70;75.60;;;;;;4990936;28;20529;-64
2023/10/02 17:08:00;;;;;;;6.65;4.00;;;20.70;75.70;;;;;;4990994;28;20240;-65
2023/10/02 17:10:28;;;;;;;7.10;4.07;;;20.70;75.60;;;;;;4990951;28;20222;-65
2023/10/02 17:13:00;;;;;;;5.22;3.80;;;20.70;75.70;;;;;;4990865;28;20264;-64
2023/10/02 17:15:30;;;;;;;6.07;4.13;;;20.70;75.70;;;;;;4990406;28;20245;-63
2023/10/02 17:18:12;;;;;;;6.13;4.10;;;20.70;75.70;;;;;;4990503;28;20229;-65
2023/10/02 17:20:39;;;;;;;8.18;3.97;;;20.70;75.90;;;;;;4990753;28;20218;-64
2023/10/02 17:23:08;;;;;;;5.95;3.80;;;20.70;75.80;;;;;;4990818;28;20281;-64
2023/10/02 17:25:37;;;;;;;7.05;4.10;;;20.70;75.90;;;;;;4990714;28;20276;-64
2023/10/02 17:28:06;;;;;;;6.05;4.10;;;20.70;76.70;;;;;;4990643;28;20194;-64
2023/10/02 17:30:36;;;;;;;6.07;4.00;;;20.70;76.00;;;;;;4990716;28;20217;-65
2023/10/02 17:33:04;;;;;;;5.78;4.00;;;20.70;76.00;;;;;;4990305;28;20225;-64
2023/10/02 17:38:17;;;;;;;7.47;4.03;;;20.70;76.00;;;;;;4990345;28;20256;-65
2023/10/02 17:40:44;;;;;;;6.60;3.83;;;20.70;76.00;;;;;;4990595;28;20214;-64
2023/10/02 17:43:12;;;;;;;5.93;4.25;;;20.70;76.00;;;;;;4990541;28;20252;-64
2023/10/02 17:45:39;;;;;;;6.65;4.20;;;20.70;76.00;;;;;;4990493;28;20217;-65
2023/10/02 17:48:07;;;;;;;5.75;3.95;;;20.70;76.00;;;;;;4990408;28;20281;-64
2023/10/02 17:50:56;;;;;;;;;;;;;;;;;;;;;
2023/10/02 17:56:33;;;;;;;6.18;4.05;;;20.70;76.00;;;;;;4989480;28;20261;-64
2023/10/02 17:59:01;;;;;;;6.05;3.83;;;20.70;76.00;;;;;;4990362;28;20554;-64
2023/10/02 18:01:28;;;;;;;5.65;3.90;;;20.60;75.90;;;;;;4990548;28;20222;-62
2023/10/02 18:08:05;;;;;;;;;;;;;;;;;;;;;
2023/10/02 18:10:46;;;;;;;5.95;3.78;;;20.70;76.10;;;;;;4913626;29;20792;-64
2023/10/02 18:13:14;;;;;;;5.13;3.85;;;20.70;76.10;;;;;;4913596;29;20666;-65
2023/10/02 18:15:43;;;;;;;6.60;4.05;;;20.70;76.00;;;;;;4913572;29;20256;-65
2023/10/02 18:18:11;;;;;;;7.05;4.32;;;20.70;76.10;;;;;;4919822;29;20243;-64
2023/10/02 18:20:43;;;;;;;6.40;4.00;;;20.70;76.10;;;;;;4932531;29;20321;-65
2023/10/02 18:23:14;;;;;;;8.07;4.10;;;20.70;76.00;;;;;;4932437;29;20353;-64
2023/10/02 18:25:51;;;;;;;5.45;3.85;;;20.70;76.10;;;;;;4934593;29;20684;-65
2023/10/02 18:28:20;;;;;;;6.03;4.13;;;20.70;76.10;;;;;;4936121;29;20204;-65
2023/10/02 18:30:48;;;;;;;7.25;4.50;;;20.70;76.00;;;;;;4935947;29;20232;-65
2023/10/02 18:36:05;;;;;;;5.70;4.28;;;20.70;76.10;;;;;;4879473;29;20230;-65
2023/10/02 18:38:36;;;;;;;7.78;4.68;;;20.60;76.00;;;;;;4879145;29;20325;-64
2023/10/02 18:41:10;;;;;;;8.65;4.80;;;20.70;76.10;;;;;;4963730;28;20734;-65
2023/10/02 18:43:38;;;;;;;6.70;4.63;;;20.70;76.10;;;;;;4993730;28;20341;-64
2023/10/02 18:46:13;;;;;;;7.40;4.78;;;20.70;76.10;;;;;;4993672;28;20249;-64
2023/10/02 18:48:41;;;;;;;7.65;4.65;;;20.70;76.10;;;;;;4993585;28;20200;-64
2023/10/02 18:51:18;;;;;;;9.70;4.90;;;20.70;76.10;;;;;;4993604;28;20237;-64
2023/10/02 18:53:55;;;;;;;;;;;;;;;;;;;;;
2023/10/02 18:56:31;;;;;;;6.03;4.50;;;20.70;76.10;;;;;;4929539;28;20595;-65
2023/10/02 18:58:59;;;;;;;7.40;5.57;;;20.70;76.20;;;;;;5016469;28;20235;-64
2023/10/02 19:01:27;;;;;;;7.93;5.20;;;20.70;76.20;;;;;;5054975;28;20212;-65
2023/10/02 19:03:55;;;;;;;7.60;5.15;;;20.70;76.20;;;;;;5055163;28;20198;-64
2023/10/02 19:21:36;;;;;;;5.90;4.38;;;20.60;76.00;;;;;;4991653;28;20225;-65
2023/10/02 19:24:05;;;;;;;7.40;4.80;;;20.60;76.00;;;;;;4993162;28;20202;-64
2023/10/02 19:26:34;;;;;;;5.70;4.05;;;20.60;76.10;;;;;;4992939;28;20221;-65
2023/10/02 19:29:02;;;;;;;6.97;4.30;;;20.60;76.00;;;;;;4992888;28;20205;-65
2023/10/02 19:31:31;;;;;;;5.68;4.10;;;20.60;76.00;;;;;;4992892;28;20245;-65
2023/10/02 19:34:00;;;;;;;6.30;4.18;;;20.60;76.00;;;;;;4992768;28;20190;-64
2023/10/02 19:36:33;;;;;;;8.20;4.78;;;20.60;76.00;;;;;;4992101;28;20221;-65
2023/10/02 19:39:05;;;;;;;6.50;4.20;;;20.60;75.90;;;;;;4992645;28;20229;-65
2023/10/02 19:41:33;;;;;;;6.03;4.50;;;20.60;75.90;;;;;;4992753;28;20225;-64
2023/10/02 19:44:03;;;;;;;5.63;4.25;;;20.60;75.90;;;;;;4992674;28;20190;-64
2023/10/02 19:46:30;;;;;;;6.13;4.30;;;20.60;75.90;;;;;;4992574;28;20221;-65
2023/10/02 19:49:36;;;;;;;6.82;4.55;;;20.60;75.90;;;;;;5020461;28;20203;-65
2023/10/02 20:02:24;;;;;;;5.60;4.18;;;20.50;75.60;;;;;;5053004;28;20207;-65
2023/10/02 20:08:27;;;;;;;6.43;4.38;;;20.50;75.70;;;;;;4972113;28;20202;-65
2023/10/02 20:10:56;;;;;;;7.00;4.05;;;20.50;75.60;;;;;;4996172;28;20230;-65
2023/10/02 20:13:24;;;;;;;6.97;4.32;;;20.50;75.60;;;;;;5054202;28;20196;-65
2023/10/02 20:15:52;;;;;;;5.57;3.80;;;20.50;75.60;;;;;;5053514;28;20228;-65
2023/10/02 20:18:23;;;;;;;6.47;3.97;;;20.50;75.50;;;;;;5053437;28;20235;-65
2023/10/02 20:20:53;;;;;;;6.68;3.95;;;20.50;75.50;;;;;;5053658;28;20245;-65
2023/10/02 20:24:04;;;;;;;;;;;;;;;;;;;;;
2023/10/02 20:29:58;;;;;;;6.03;4.03;;;20.50;75.10;;;;;;5029374;28;20215;-64
2023/10/02 20:32:29;;;;;;;5.50;3.85;;;20.50;75.00;;;;;;5053715;28;20227;-64
2023/10/02 20:38:17;;;;;;;5.43;4.10;;;20.40;75.00;;;;;;4991541;28;20224;-64
2023/10/02 20:43:51;;;;;;;6.35;4.30;;;20.40;74.80;;;;;;4991385;28;20305;-65
2023/10/02 20:46:19;;;;;;;9.65;4.30;;;20.40;74.80;;;;;;4991281;28;20228;-65
2023/10/02 20:48:47;;;;;;;7.60;4.32;;;20.40;74.80;;;;;;4990145;28;20230;-65
2023/10/02 20:51:16;;;;;;;6.05;4.32;;;20.40;75.60;;;;;;4991377;28;20217;-65
2023/10/02 20:53:44;;;;;;;7.70;3.90;;;20.40;74.80;;;;;;4991329;28;20311;-65
2023/10/02 20:59:36;;;;;;;8.35;4.35;;;20.40;74.80;;;;;;4913770;29;20778;-65
2023/10/02 21:02:22;;;;;;;6.85;4.55;;;20.40;74.80;;;;;;4930235;28;20229;-65
2023/10/02 21:07:44;;;;;;;6.50;4.03;;;20.40;74.80;;;;;;4947055;28;20265;-63
2023/10/02 21:10:12;;;;;;;5.97;4.22;;;20.40;74.80;;;;;;5052802;28;20187;-65
2023/10/02 21:12:45;;;;;;;5.68;3.80;;;20.40;74.70;;;;;;5052611;28;20215;-64
2023/10/02 21:15:13;;;;;;;6.05;4.43;;;20.40;74.70;;;;;;5052376;28;20279;-65
2023/10/02 21:17:49;;;;;;;10.50;4.82;;;20.40;74.80;;;;;;5052558;28;20219;-64
2023/10/02 21:20:17;;;;;;;7.63;4.57;;;20.40;74.70;;;;;;5052565;28;20305;-64
2023/10/02 21:22:46;;;;;;;6.30;4.20;;;20.40;74.70;;;;;;5052564;28;20306;-64
2023/10/02 21:25:15;;;;;;;6.03;4.40;;;20.40;74.70;;;;;;5052234;28;20275;-64
2023/10/02 21:27:43;;;;;;;7.07;4.63;;;20.40;74.70;;;;;;5052382;28;20219;-64
2023/10/02 21:30:12;;;;;;;8.13;4.65;;;20.40;74.70;;;;;;5052514;28;20187;-65
2023/10/02 21:35:32;;;;;;;;;;;;;;;;;;;;;
2023/10/02 21:38:22;;;;;;;6.47;4.88;;;20.40;74.60;;;;;;5051890;28;20227;-65
2023/10/02 21:41:11;;;;;;;9.20;5.30;;;20.40;74.60;;;;;;4990473;28;20655;-64
2023/10/02 21:47:39;;;;;;;;;;;;;;;;;;;;;
2023/10/02 21:50:07;;;;;;;8.45;5.28;;;20.40;74.70;;;;;;4885381;29;20200;-65
2023/10/02 21:52:38;;;;;;;9.25;5.00;;;20.30;74.60;;;;;;4932756;29;20236;-65
2023/10/02 21:55:09;;;;;;;7.75;5.60;;;20.40;74.60;;;;;;4932637;29;20551;-64
2023/10/02 21:58:04;;;;;;;8.55;5.20;;;20.40;74.60;;;;;;4932636;29;20282;-64
2023/10/02 22:00:46;;;;;;;8.10;5.10;;;20.40;74.60;;;;;;4933111;28;20315;-65
2023/10/02 22:03:14;;;;;;;11.15;5.60;;;20.40;74.60;;;;;;4936487;29;20283;-64